sensor_id;sensor_type;location;lat;lon;timestamp;P1;durP1;ratioP1;P2;durP2;ratioP2
29254;SDS011;16277;48.890;2.306;2023-11-21T00:01:45;10.03;;;4.30;;
29254;SDS011;16277;48.890;2.306;2023-11-21T00:16:49;10.70;;;4.63;;
29254;SDS011;16277;48.890;2.306;2023-11-21T00:32:12;4.43;;;4.13;;
29254;SDS011;16277;48.890;2.306;2023-11-21T00:47:36;7.20;;;4.60;;
29254;SDS011;16277;48.890;2.306;2023-11-21T01:02:42;5.90;;;5.33;;
29254;SDS011;16277;48.890;2.306;2023-11-21T01:17:48;7.90;;;5.27;;
29254;SDS011;16277;48.890;2.306;2023-11-21T01:32:53;7.23;;;4.60;;
29254;SDS011;16277;48.890;2.306;2023-11-21T01:47:57;10.90;;;4.47;;
29254;SDS011;16277;48.890;2.306;2023-11-21T02:03:04;14.90;;;4.03;;
29254;SDS011;16277;48.890;2.306;2023-11-21T02:18:10;4.47;;;4.07;;
29254;SDS011;16277;48.890;2.306;2023-11-21T02:33:14;7.90;;;4.33;;
29254;SDS011;16277;48.890;2.306;2023-11-21T02:48:19;6.40;;;2.87;;
29254;SDS011;16277;48.890;2.306;2023-11-21T03:03:27;3.87;;;3.43;;
29254;SDS011;16277;48.890;2.306;2023-11-21T03:18:32;6.70;;;4.27;;
29254;SDS011;16277;48.890;2.306;2023-11-21T03:33:36;7.07;;;3.40;;
29254;SDS011;16277;48.890;2.306;2023-11-21T03:48:41;5.83;;;3.90;;
29254;SDS011;16277;48.890;2.306;2023-11-21T04:03:46;12.73;;;3.97;;
29254;SDS011;16277;48.890;2.306;2023-11-21T04:18:50;4.80;;;3.67;;
29254;SDS011;16277;48.890;2.306;2023-11-21T04:33:55;6.20;;;4.00;;
29254;SDS011;16277;48.890;2.306;2023-11-21T04:48:59;5.53;;;5.13;;
29254;SDS011;16277;48.890;2.306;2023-11-21T05:04:04;8.90;;;4.90;;
29254;SDS011;16277;48.890;2.306;2023-11-21T05:19:12;12.17;;;4.43;;
29254;SDS011;16277;48.890;2.306;2023-11-21T05:34:17;5.67;;;5.07;;
29254;SDS011;16277;48.890;2.306;2023-11-21T05:49:23;5.03;;;4.77;;
29254;SDS011;16277;48.890;2.306;2023-11-21T06:04:29;4.73;;;4.53;;
29254;SDS011;16277;48.890;2.306;2023-11-21T06:19:34;5.27;;;5.03;;
29254;SDS011;16277;48.890;2.306;2023-11-21T06:34:38;4.97;;;4.67;;
29254;SDS011;16277;48.890;2.306;2023-11-21T06:49:43;4.03;;;3.83;;
29254;SDS011;16277;48.890;2.306;2023-11-21T07:04:50;4.30;;;4.10;;
29254;SDS011;16277;48.890;2.306;2023-11-21T07:19:55;5.20;;;4.87;;
29254;SDS011;16277;48.890;2.306;2023-11-21T07:34:59;5.10;;;4.97;;
29254;SDS011;16277;48.890;2.306;2023-11-21T07:50:04;7.47;;;7.20;;
29254;SDS011;16277;48.890;2.306;2023-11-21T08:05:11;7.53;;;7.33;;
29254;SDS011;16277;48.890;2.306;2023-11-21T08:20:26;8.53;;;7.87;;
29254;SDS011;16277;48.890;2.306;2023-11-21T08:35:32;10.93;;;10.37;;
29254;SDS011;16277;48.890;2.306;2023-11-21T08:50:36;9.63;;;9.23;;
29254;SDS011;16277;48.890;2.306;2023-11-21T09:05:41;13.60;;;9.23;;
29254;SDS011;16277;48.890;2.306;2023-11-21T09:20:45;11.33;;;8.67;;
29254;SDS011;16277;48.890;2.306;2023-11-21T09:35:50;5.53;;;5.30;;
29254;SDS011;16277;48.890;2.306;2023-11-21T09:50:55;4.27;;;4.10;;
29254;SDS011;16277;48.890;2.306;2023-11-21T10:06:00;8.10;;;3.53;;
29254;SDS011;16277;48.890;2.306;2023-11-21T10:21:08;5.37;;;4.13;;
29254;SDS011;16277;48.890;2.306;2023-11-21T10:36:13;13.60;;;3.53;;
29254;SDS011;16277;48.890;2.306;2023-11-21T10:51:31;2.10;;;2.00;;
29254;SDS011;16277;48.890;2.306;2023-11-21T11:06:35;1.57;;;1.57;;
29254;SDS011;16277;48.890;2.306;2023-11-21T11:21:45;1.23;;;1.23;;
29254;SDS011;16277;48.890;2.306;2023-11-21T11:36:54;3.20;;;1.90;;
29254;SDS011;16277;48.890;2.306;2023-11-21T12:07:49;2.47;;;2.00;;
29254;SDS011;16277;48.890;2.306;2023-11-21T12:22:57;0.73;;;0.70;;
29254;SDS011;16277;48.890;2.306;2023-11-21T12:38:03;1.87;;;1.77;;
29254;SDS011;16277;48.890;2.306;2023-11-21T12:53:09;15.27;;;2.10;;
29254;SDS011;16277;48.890;2.306;2023-11-21T13:08:16;6.17;;;5.97;;
29254;SDS011;16277;48.890;2.306;2023-11-21T13:23:23;7.83;;;1.67;;
29254;SDS011;16277;48.890;2.306;2023-11-21T13:38:28;3.10;;;1.57;;
29254;SDS011;16277;48.890;2.306;2023-11-21T13:53:36;2.73;;;1.63;;
29254;SDS011;16277;48.890;2.306;2023-11-21T14:08:41;3.70;;;1.77;;
29254;SDS011;16277;48.890;2.306;2023-11-21T14:23:47;9.73;;;1.80;;
29254;SDS011;16277;48.890;2.306;2023-11-21T14:38:51;3.20;;;1.50;;
29254;SDS011;16277;48.890;2.306;2023-11-21T14:53:56;3.67;;;2.33;;
29254;SDS011;16277;48.890;2.306;2023-11-21T15:09:09;5.33;;;2.20;;
29254;SDS011;16277;48.890;2.306;2023-11-21T15:24:31;2.37;;;1.30;;
29254;SDS011;16277;48.890;2.306;2023-11-21T15:39:35;2.40;;;1.10;;
29254;SDS011;16277;48.890;2.306;2023-11-21T15:54:40;1.87;;;1.77;;
29254;SDS011;16277;48.890;2.306;2023-11-21T16:09:47;1.10;;;1.10;;
29254;SDS011;16277;48.890;2.306;2023-11-21T16:24:52;3.33;;;1.70;;
29254;SDS011;16277;48.890;2.306;2023-11-21T16:39:57;1.57;;;1.47;;
29254;SDS011;16277;48.890;2.306;2023-11-21T16:55:03;1.70;;;1.60;;
29254;SDS011;16277;48.890;2.306;2023-11-21T17:10:08;2.37;;;2.27;;
29254;SDS011;16277;48.890;2.306;2023-11-21T17:25:15;6.43;;;2.70;;
29254;SDS011;16277;48.890;2.306;2023-11-21T17:40:20;2.97;;;2.67;;
29254;SDS011;16277;48.890;2.306;2023-11-21T17:55:24;3.13;;;2.70;;
29254;SDS011;16277;48.890;2.306;2023-11-21T18:10:29;2.90;;;2.70;;
29254;SDS011;16277;48.890;2.306;2023-11-21T18:25:34;3.10;;;2.90;;
29254;SDS011;16277;48.890;2.306;2023-11-21T18:40:41;6.93;;;3.47;;
29254;SDS011;16277;48.890;2.306;2023-11-21T18:55:46;7.47;;;3.80;;
29254;SDS011;16277;48.890;2.306;2023-11-21T19:10:50;5.67;;;4.60;;
29254;SDS011;16277;48.890;2.306;2023-11-21T19:25:55;10.73;;;5.77;;
29254;SDS011;16277;48.890;2.306;2023-11-21T19:41:00;14.77;;;4.63;;
29254;SDS011;16277;48.890;2.306;2023-11-21T19:56:06;15.67;;;5.47;;
29254;SDS011;16277;48.890;2.306;2023-11-21T20:11:12;6.07;;;5.53;;
29254;SDS011;16277;48.890;2.306;2023-11-21T20:26:25;11.93;;;5.10;;
29254;SDS011;16277;48.890;2.306;2023-11-21T20:41:30;9.00;;;4.27;;
29254;SDS011;16277;48.890;2.306;2023-11-21T20:56:34;6.80;;;3.80;;
29254;SDS011;16277;48.890;2.306;2023-11-21T21:11:39;3.77;;;3.43;;
29254;SDS011;16277;48.890;2.306;2023-11-21T21:26:44;4.00;;;3.60;;
29254;SDS011;16277;48.890;2.306;2023-11-21T21:41:48;7.70;;;6.27;;
29254;SDS011;16277;48.890;2.306;2023-11-21T21:56:54;6.83;;;4.20;;
29254;SDS011;16277;48.890;2.306;2023-11-21T22:11:59;8.17;;;6.33;;
29254;SDS011;16277;48.890;2.306;2023-11-21T22:27:03;5.80;;;5.07;;
29254;SDS011;16277;48.890;2.306;2023-11-21T22:42:08;6.17;;;5.03;;
29254;SDS011;16277;48.890;2.306;2023-11-21T22:57:13;6.90;;;6.60;;
29254;SDS011;16277;48.890;2.306;2023-11-21T23:12:17;7.67;;;6.40;;
29254;SDS011;16277;48.890;2.306;2023-11-21T23:27:22;9.23;;;8.13;;
29254;SDS011;16277;48.890;2.306;2023-11-21T23:42:27;9.63;;;8.87;;
29254;SDS011;16277;48.890;2.306;2023-11-21T23:57:31;10.17;;;9.23;;
